Time;durP1;ratioP1;P1;durP2;ratioP2;P2;SDS_P1;SDS_P2;PMS_P1;PMS_P2;Temp;Humidity;BMP_temperature;BMP_pressure;BME280_temperature;BME280_humidity;BME280_pressure;Samples;Min_cycle;Max_cycle;Signal;HPM_P1;HPM_P2
2022/01/23 00:02:05;;;;;;;5.78;4.50;;;;;;;0.87;64.84;100332.63;5065956;28;20359;-66
2022/01/23 00:04:38;;;;;;;6.53;5.33;;;;;;;0.87;64.91;100329.16;5065055;28;20057;-66
2022/01/23 00:07:11;;;;;;;8.57;4.78;;;;;;;0.90;64.83;100329.16;5066084;28;20572;-66
2022/01/23 00:09:44;;;;;;;6.40;4.15;;;;;;;0.92;64.66;100325.66;5066056;28;20043;-66
2022/01/23 00:12:23;;;;;;;7.85;4.05;;;;;;;0.92;64.82;100324.81;5065733;28;20041;-67
2022/01/23 00:17:42;;;;;;;5.35;3.78;;;;;;;0.91;64.79;100316.09;5065977;28;20045;-66
2022/01/23 00:20:15;;;;;;;5.10;3.90;;;;;;;0.92;64.60;100327.41;5065681;28;20060;-67
2022/01/23 00:22:51;;;;;;;6.38;4.28;;;;;;;0.92;64.61;100324.81;5065620;28;20052;-66
2022/01/23 00:31:04;;;;;;;5.38;3.90;;;;;;;0.96;64.58;100333.50;5064554;28;20060;-66
2022/01/23 00:33:36;;;;;;;6.65;3.85;;;;;;;0.96;64.54;100333.50;5065668;28;20232;-66
2022/01/23 00:36:08;;;;;;;9.80;4.78;;;;;;;0.38;64.49;100237.84;5064666;28;20316;-66
2022/01/23 00:38:41;;;;;;;8.05;4.78;;;;;;;0.96;64.58;100336.09;5065190;28;20087;-66
2022/01/23 00:41:13;;;;;;;5.78;4.35;;;;;;;1.01;64.45;100331.75;5064782;28;20051;-66
2022/01/23 00:43:48;;;;;;;5.53;3.80;;;;;;;0.72;64.44;100274.38;5065355;28;20082;-66
2022/01/23 00:46:32;;;;;;;4.28;3.08;;;;;;;1.03;64.39;100322.19;5064633;28;20055;-67
2022/01/23 00:49:25;;;;;;;6.50;3.38;;;;;;;1.03;64.43;100323.06;5065250;28;20044;-66
2022/01/23 00:51:57;;;;;;;8.70;4.43;;;;;;;1.06;64.34;100327.41;5064653;28;20055;-66
2022/01/23 00:54:30;;;;;;;7.05;3.83;;;;;;;1.07;64.09;100323.91;5064840;28;20049;-66
2022/01/23 00:57:02;;;;;;;7.22;4.50;;;;;;;1.10;64.22;100313.47;5065440;28;20048;-67
2022/01/23 00:59:35;;;;;;;6.30;3.53;;;;;;;0.82;63.92;100279.56;5065422;28;20040;-67
2022/01/23 01:02:08;;;;;;;5.60;3.58;;;;;;;1.12;63.84;100328.25;5047695;28;20052;-66
2022/01/23 01:04:40;;;;;;;5.47;3.88;;;;;;;1.14;63.84;100336.09;5064958;28;20374;-66
2022/01/23 01:07:12;;;;;;;5.43;3.75;;;;;;;1.13;63.86;100330.00;5065233;28;20199;-66
2022/01/23 01:09:49;;;;;;;7.00;4.80;;;;;;;1.14;63.83;100331.75;5064394;28;20041;-66
2022/01/23 01:12:25;;;;;;;5.28;3.50;;;;;;;1.15;64.11;100330.88;5065227;28;20091;-66
2022/01/23 01:30:12;;;;;;;6.00;3.78;;;;;;;1.20;63.90;100342.16;5057292;28;20060;-66
2022/01/23 01:32:02;;;;;;;7.45;4.57;;;;;;;0.86;65.26;100288.28;5064853;28;20041;-66
2022/01/23 01:34:39;;;;;;;7.55;3.95;;;;;;;1.14;65.09;100336.09;5064406;28;20056;-66
2022/01/23 01:37:12;;;;;;;5.97;4.55;;;;;;;1.14;65.68;100323.03;5065777;28;20041;-66
2022/01/23 01:39:45;;;;;;;5.55;4.38;;;;;;;1.14;65.95;100338.69;5064959;28;20174;-66
2022/01/23 01:42:17;;;;;;;6.70;5.30;;;;;;;1.19;65.37;100331.72;5065130;28;20041;-67
2022/01/23 01:44:50;;;;;;;8.15;5.53;;;;;;;0.85;65.99;100276.97;5065093;28;20041;-66
2022/01/23 01:47:21;;;;;;;7.75;5.50;;;;;;;1.16;66.11;100334.34;5065088;28;20060;-67
2022/01/23 01:49:50;;;;;;;7.60;5.22;;;;;;;1.16;66.42;100337.81;5064326;28;20041;-66
2022/01/23 01:52:20;;;;;;;12.30;6.18;;;;;;;1.17;66.45;100336.97;5068837;28;20044;-67
2022/01/23 01:54:58;;;;;;;8.82;5.72;;;;;;;1.17;66.76;100342.19;5068755;28;20041;-67
2022/01/23 01:57:39;;;;;;;7.95;5.50;;;;;;;0.57;66.50;100241.31;5068015;28;20319;-66
2022/01/23 02:00:24;;;;;;;9.15;5.47;;;;;;;1.02;66.80;100296.94;5068749;28;20037;-66
2022/01/23 02:08:34;;;;;;;9.48;5.75;;;;;;;-0.53;66.63;100025.03;5068103;28;20098;-66
2022/01/23 02:11:16;;;;;;;7.55;5.97;;;;;;;0.13;66.43;100137.06;5068167;28;20203;-66
2022/01/23 02:13:53;;;;;;;6.60;4.95;;;;;;;1.31;66.82;100339.53;5068147;28;20312;-66
2022/01/23 02:25:16;;;;;;;7.68;5.95;;;;;;;0.82;66.88;100219.56;5067920;28;20112;-66
2022/01/23 02:50:39;;;;;;;9.18;6.35;;;;;;;1.36;67.38;100322.13;5067771;28;20040;-66
2022/01/23 02:50:45;;;;;;;9.07;7.50;;;;;;;1.44;67.77;100330.81;5067492;28;20095;-67
2022/01/23 02:56:17;;;;;;;9.40;6.75;;;;;;;1.44;68.45;100335.16;5067227;28;19959;-68
2022/01/23 02:58:58;;;;;;;7.88;7.07;;;;;;;1.47;68.19;100333.41;5067356;28;20293;-67
2022/01/23 03:01:34;;;;;;;7.70;5.82;;;;;;;1.52;68.15;100328.16;5067019;28;20212;-68
2022/01/23 03:04:09;;;;;;;8.90;7.07;;;;;;;1.48;68.70;100319.47;5067236;28;20053;-68
2022/01/23 03:06:55;;;;;;;9.63;6.70;;;;;;;1.47;69.10;100322.97;5066434;28;20049;-67
2022/01/23 03:13:16;;;;;;;7.45;6.53;;;;;;;1.48;69.71;100321.22;5067317;28;20041;-68
2022/01/23 03:15:26;;;;;;;7.90;6.68;;;;;;;1.47;70.09;100324.69;5066806;28;20225;-67
2022/01/23 03:26:33;;;;;;;7.72;6.40;;;;;;;1.54;70.63;100331.66;5067033;28;20041;-67
2022/01/23 03:29:20;;;;;;;7.55;6.07;;;;;;;1.53;70.87;100330.78;5066861;28;20174;-67
2022/01/23 03:32:12;;;;;;;7.22;6.47;;;;;;;1.56;70.45;100330.78;5065944;28;20037;-67
2022/01/23 03:34:46;;;;;;;6.72;6.03;;;;;;;1.54;72.02;100329.91;5066839;28;20111;-66
2022/01/23 03:37:18;;;;;;;8.20;6.28;;;;;;;1.55;71.40;100339.47;5065716;28;20045;-66
2022/01/23 03:39:48;;;;;;;7.43;6.43;;;;;;;1.60;71.74;100334.28;5066451;28;20367;-66
2022/01/23 03:42:19;;;;;;;7.13;5.47;;;;;;;1.58;71.89;100334.25;5065604;28;20049;-66
2022/01/23 03:45:07;;;;;;;7.25;5.90;;;;;;;1.59;72.16;100335.13;5066488;28;20108;-66
2022/01/23 03:47:42;;;;;;;5.63;5.13;;;;;;;0.71;72.21;100196.97;5066234;28;20064;-66
2022/01/23 03:50:13;;;;;;;6.68;5.28;;;;;;;1.61;72.37;100324.69;5066437;28;20334;-66
2022/01/23 03:52:45;;;;;;;6.72;5.25;;;;;;;1.47;71.85;100286.38;5066460;28;20037;-66
2022/01/23 03:55:18;;;;;;;17.52;10.18;;;;;;;1.64;72.97;100315.09;5065624;28;20087;-66
2022/01/23 03:57:50;;;;;;;8.40;6.28;;;;;;;1.65;72.75;100321.19;5066305;28;20094;-67
2022/01/23 04:00:24;;;;;;;6.97;4.97;;;;;;;1.63;73.30;100323.81;5065971;28;20327;-67
2022/01/23 04:02:56;;;;;;;6.40;5.50;;;;;;;1.63;73.42;100321.19;5065934;28;20041;-67
2022/01/23 04:05:28;;;;;;;5.38;4.10;;;;;;;1.65;73.77;100329.03;5065846;28;20251;-68
2022/01/23 04:08:01;;;;;;;5.15;3.67;;;;;;;1.66;73.64;100326.41;5064982;28;20200;-67
2022/01/23 04:10:33;;;;;;;5.32;3.70;;;;;;;1.65;73.68;100329.91;5065838;28;20094;-68
2022/01/23 04:13:15;;;;;;;4.53;3.53;;;;;;;1.67;73.21;100325.53;5065324;28;20084;-67
2022/01/23 04:15:54;;;;;;;4.50;3.70;;;;;;;1.67;73.70;100316.81;5065782;28;20041;-67
2022/01/23 04:21:21;;;;;;;4.80;3.75;;;;;;;1.41;73.56;100278.56;5065898;28;20269;-67
2022/01/23 04:32:44;;;;;;;4.38;3.22;;;;;;;1.39;73.53;100295.13;5064738;28;20048;-67
2022/01/23 04:35:44;;;;;;;4.85;3.67;;;;;;;0.52;73.24;100147.44;5065440;28;20178;-67
2022/01/23 04:47:56;;;;;;;4.25;2.88;;;;;;;1.69;72.16;100352.53;5065267;28;20086;-67
2022/01/23 05:01:15;;;;;;;3.45;2.60;;;;;;;1.65;74.04;100360.38;5064219;28;20091;-67
2022/01/23 05:04:12;;;;;;;3.58;2.72;;;;;;;1.68;73.03;100353.41;5048405;28;20091;-67
2022/01/23 05:06:56;;;;;;;4.35;3.22;;;;;;;1.67;73.66;100356.91;5065312;28;20040;-67
2022/01/23 05:09:30;;;;;;;3.83;3.05;;;;;;;0.84;73.51;100227.38;5065004;28;20088;-67
2022/01/23 05:12:05;;;;;;;5.22;3.30;;;;;;;1.66;74.17;100368.22;5064398;28;20052;-67
2022/01/23 05:14:43;;;;;;;3.67;2.60;;;;;;;1.64;74.57;100369.09;5064477;28;20045;-66
2022/01/23 05:17:16;;;;;;;4.97;3.03;;;;;;;1.62;74.36;100368.25;5064236;28;20087;-67
2022/01/23 05:19:48;;;;;;;3.58;2.63;;;;;;;1.62;74.36;100369.09;5065030;28;20044;-67
2022/01/23 05:22:29;;;;;;;4.43;2.70;;;;;;;1.64;74.71;100358.66;5065045;28;20227;-66
2022/01/23 05:25:09;;;;;;;3.50;2.60;;;;;;;1.63;74.39;100359.53;5066732;28;20037;-67
2022/01/23 05:27:42;;;;;;;5.13;3.67;;;;;;;1.57;74.61;100358.63;5068660;28;20312;-67
2022/01/23 05:30:14;;;;;;;3.70;2.45;;;;;;;1.58;74.84;100360.38;5069120;28;20095;-67
2022/01/23 05:32:46;;;;;;;3.67;2.17;;;;;;;1.57;74.42;100363.00;5068936;28;20037;-67
2022/01/23 05:35:21;;;;;;;3.63;2.15;;;;;;;1.52;74.71;100359.53;5068822;28;20036;-67
2022/01/23 05:37:56;;;;;;;3.75;2.55;;;;;;;1.53;74.62;100367.34;5069063;28;20322;-67
2022/01/23 05:40:29;;;;;;;3.60;2.60;;;;;;;1.53;74.75;100372.56;5067930;28;20301;-67
2022/01/23 05:43:02;;;;;;;3.97;2.42;;;;;;;1.57;74.47;100374.31;5068637;28;20047;-66
2022/01/23 05:45:37;;;;;;;4.47;2.60;;;;;;;1.57;74.78;100384.75;5068119;28;20078;-67
2022/01/23 05:48:11;;;;;;;3.60;2.95;;;;;;;1.58;74.61;100389.13;5068810;28;20086;-67
2022/01/23 05:50:43;;;;;;;3.75;2.83;;;;;;;1.57;75.10;100395.22;5068535;28;20223;-67
2022/01/23 05:53:17;;;;;;;4.15;2.97;;;;;;;1.57;74.97;100412.63;5068514;28;20083;-67
2022/01/23 05:55:49;;;;;;;3.50;2.53;;;;;;;1.61;74.57;100406.56;5067663;28;20248;-67
2022/01/23 05:58:21;;;;;;;3.97;2.58;;;;;;;1.59;75.06;100410.88;5068630;28;20253;-66
2022/01/23 06:00:53;;;;;;;4.43;2.90;;;;;;;1.63;74.57;100409.16;5068342;28;20343;-67
2022/01/23 06:03:27;;;;;;;4.15;2.80;;;;;;;1.63;74.91;100414.41;5068628;28;20048;-67
2022/01/23 06:05:59;;;;;;;3.13;2.33;;;;;;;1.58;75.78;100411.75;5067412;28;20060;-67
2022/01/23 06:08:33;;;;;;;3.33;2.58;;;;;;;1.59;75.34;100411.75;5068446;28;20045;-66
2022/01/23 06:11:05;;;;;;;3.80;2.40;;;;;;;1.61;75.19;100418.75;5068475;28;20041;-67
2022/01/23 06:13:37;;;;;;;3.72;2.60;;;;;;;1.48;74.76;100399.59;5068391;28;20044;-67
2022/01/23 06:16:10;;;;;;;3.45;2.72;;;;;;;1.57;75.21;100415.25;5068358;28;20082;-67
2022/01/23 06:18:44;;;;;;;7.75;3.15;;;;;;;1.55;75.10;100432.66;5067449;28;20041;-67
2022/01/23 06:21:19;;;;;;;4.10;2.95;;;;;;;1.53;75.59;100426.56;5068021;28;20041;-67
2022/01/23 06:24:02;;;;;;;5.07;2.97;;;;;;;1.51;75.79;100433.53;5067951;28;20049;-67
2022/01/23 06:26:43;;;;;;;4.65;3.63;;;;;;;1.49;76.35;100430.94;5067916;28;20099;-67
2022/01/23 06:29:18;;;;;;;3.67;2.88;;;;;;;1.19;75.55;100389.19;5067770;28;20040;-67
2022/01/23 06:31:53;;;;;;;3.88;3.05;;;;;;;1.52;75.77;100450.97;5068104;28;20128;-67
2022/01/23 06:34:25;;;;;;;;;;;;;;;1.48;77.17;100455.31;5067453;28;20041;-67
2022/01/23 06:36:58;;;;;;;3.55;2.90;;;;;;;0.66;75.56;100335.25;5067182;28;19920;-67
2022/01/23 06:39:32;;;;;;;4.65;2.85;;;;;;;1.55;75.58;100467.50;5067635;28;20053;-67
2022/01/23 06:42:05;;;;;;;4.18;2.90;;;;;;;1.06;76.29;100408.34;5067486;28;20083;-67
2022/01/23 06:44:40;;;;;;;3.78;2.75;;;;;;;1.56;75.71;100477.09;5067725;28;20049;-67
2022/01/23 06:47:12;;;;;;;4.22;2.88;;;;;;;1.56;75.70;100487.53;5067604;28;20041;-67
2022/01/23 06:49:44;;;;;;;4.32;2.67;;;;;;;1.57;75.46;100489.28;5066479;28;20045;-67
2022/01/23 06:52:17;;;;;;;5.28;3.33;;;;;;;1.60;75.55;100491.06;5067645;28;20079;-67
2022/01/23 06:54:51;;;;;;;4.85;3.17;;;;;;;1.61;75.75;100498.03;5067396;28;20099;-67
2022/01/23 06:57:23;;;;;;;4.43;3.00;;;;;;;1.63;75.44;100492.78;5067704;28;20106;-67
2022/01/23 06:59:55;;;;;;;4.60;2.70;;;;;;;1.62;75.73;100496.28;5067316;28;20044;-67
2022/01/23 07:02:25;;;;;;;4.00;2.97;;;;;;;1.55;76.35;100484.94;5067239;28;20112;-68
2022/01/23 07:04:56;;;;;;;6.80;3.05;;;;;;;1.54;76.15;100489.28;5067174;28;20049;-67
2022/01/23 07:07:26;;;;;;;4.05;2.95;;;;;;;1.55;76.11;100493.63;5067240;28;20260;-68
2022/01/23 07:09:58;;;;;;;4.50;3.47;;;;;;;1.55;76.49;100491.03;5066264;28;20300;-67
2022/01/23 07:12:26;;;;;;;4.47;3.05;;;;;;;1.55;76.07;100496.25;5067150;28;20274;-68
2022/01/23 07:14:57;;;;;;;4.82;3.45;;;;;;;1.34;76.02;100451.84;5066314;28;20082;-68
2022/01/23 07:17:27;;;;;;;6.00;4.25;;;;;;;1.57;76.62;100494.50;5066288;28;20119;-68
2022/01/23 07:19:57;;;;;;;4.45;3.20;;;;;;;1.58;76.02;100496.25;5067167;28;20127;-67
2022/01/23 07:22:27;;;;;;;5.53;3.00;;;;;;;1.59;76.12;100497.13;5066137;28;20041;-68
2022/01/23 07:25:03;;;;;;;5.10;3.22;;;;;;;1.06;76.83;100405.72;5066834;28;20049;-68
2022/01/23 07:27:37;;;;;;;3.50;2.70;;;;;;;1.31;76.95;100449.25;5067107;28;20047;-67
2022/01/23 07:30:23;;;;;;;3.88;3.10;;;;;;;1.61;76.29;100505.00;5066736;28;20041;-67
2022/01/23 07:32:55;;;;;;;3.63;2.70;;;;;;;1.62;76.27;100493.66;5066988;28;20049;-68
2022/01/23 07:35:27;;;;;;;3.63;3.03;;;;;;;1.26;76.74;100438.78;5066660;28;20041;-68
2022/01/23 07:38:00;;;;;;;4.03;3.22;;;;;;;1.51;76.86;100483.19;5066929;28;20048;-68
2022/01/23 07:40:34;;;;;;;4.35;3.35;;;;;;;1.57;76.56;100486.66;5066619;28;20045;-67
2022/01/23 07:43:06;;;;;;;4.25;3.45;;;;;;;1.57;76.59;100494.50;5066025;28;20104;-67
2022/01/23 07:45:38;;;;;;;5.15;3.78;;;;;;;1.09;76.85;100410.94;5065979;28;20037;-68
2022/01/23 07:48:11;;;;;;;4.28;3.42;;;;;;;1.36;76.87;100463.16;5065543;28;20090;-67
2022/01/23 07:50:43;;;;;;;5.07;3.60;;;;;;;1.59;77.01;100505.81;5066558;28;20247;-67
2022/01/23 07:53:15;;;;;;;7.13;4.28;;;;;;;1.63;76.62;100508.47;5066542;28;20056;-67
2022/01/23 07:55:49;;;;;;;6.82;4.97;;;;;;;1.62;76.67;100510.22;5066930;28;20045;-68
2022/01/23 07:58:22;;;;;;;7.78;4.97;;;;;;;1.63;77.28;100511.09;5067210;28;20047;-68
2022/01/23 08:00:55;;;;;;;5.88;4.22;;;;;;;1.67;76.90;100510.22;5066653;28;20091;-68
2022/01/23 08:03:27;;;;;;;6.03;4.45;;;;;;;1.65;76.88;100523.28;5066504;28;20083;-68
2022/01/23 08:05:59;;;;;;;7.63;4.30;;;;;;;1.66;77.32;100529.38;5065741;28;20045;-67
2022/01/23 08:08:32;;;;;;;5.40;3.45;;;;;;;1.64;77.16;100515.44;5066097;28;20041;-68
2022/01/23 08:11:06;;;;;;;5.63;3.47;;;;;;;1.39;76.67;100471.00;5065759;28;20041;-67
2022/01/23 08:13:39;;;;;;;5.25;3.55;;;;;;;1.65;77.44;100514.56;5065097;28;20051;-68
2022/01/23 08:16:11;;;;;;;5.32;3.60;;;;;;;1.64;77.33;100518.91;5065874;28;20041;-67
2022/01/23 08:18:43;;;;;;;3.95;2.92;;;;;;;1.61;77.64;100512.81;5065740;28;20091;-68
2022/01/23 08:21:15;;;;;;;6.05;3.38;;;;;;;1.61;77.08;100526.75;5064903;28;20041;-67
2022/01/23 08:23:52;;;;;;;5.60;3.00;;;;;;;1.28;77.02;100454.47;5065938;28;20045;-67
2022/01/23 08:26:26;;;;;;;5.82;3.65;;;;;;;1.08;77.18;100428.34;5065638;28;20041;-68
2022/01/23 08:28:58;;;;;;;5.20;3.35;;;;;;;1.36;77.57;100473.63;5065599;28;20095;-67
2022/01/23 08:31:31;;;;;;;5.82;3.63;;;;;;;1.63;77.13;100522.41;5065816;28;20091;-67
2022/01/23 08:34:03;;;;;;;7.15;3.42;;;;;;;1.64;77.27;100510.22;5064730;28;20224;-67
2022/01/23 08:36:36;;;;;;;4.70;3.55;;;;;;;1.63;77.23;100511.09;5065414;28;20045;-68
2022/01/23 08:39:08;;;;;;;5.65;3.65;;;;;;;1.61;77.23;100521.53;5064863;28;20224;-68
2022/01/23 08:41:51;;;;;;;4.55;3.30;;;;;;;1.58;77.50;100517.16;5065386;28;20048;-68
2022/01/23 08:44:25;;;;;;;4.32;3.30;;;;;;;1.30;77.66;100471.00;5065597;28;20048;-68
2022/01/23 08:46:57;;;;;;;4.10;2.80;;;;;;;1.58;77.31;100513.66;5065330;28;20048;-67
2022/01/23 08:49:30;;;;;;;6.30;4.45;;;;;;;1.33;77.28;100465.78;5065213;28;20041;-67
2022/01/23 08:52:02;;;;;;;8.80;4.95;;;;;;;1.64;76.97;100518.91;5064369;28;20056;-67
2022/01/23 08:54:34;;;;;;;6.13;5.10;;;;;;;1.67;77.55;100523.28;5065253;28;20041;-67
2022/01/23 08:57:08;;;;;;;8.70;6.38;;;;;;;1.66;77.18;100516.31;5065579;28;20045;-67
2022/01/23 08:59:41;;;;;;;6.85;4.47;;;;;;;1.41;77.35;100474.47;5047397;28;20227;-67
2022/01/23 09:02:13;;;;;;;6.05;4.13;;;;;;;1.68;77.61;100523.28;5065105;28;20047;-68
2022/01/23 09:04:46;;;;;;;5.97;4.25;;;;;;;1.67;77.95;100542.44;5064384;28;20075;-68
2022/01/23 09:07:18;;;;;;;6.38;4.43;;;;;;;1.64;77.88;100525.91;5064983;28;20063;-67
2022/01/23 09:09:51;;;;;;;7.82;5.43;;;;;;;1.67;77.77;100528.50;5065069;28;20041;-67
2022/01/23 09:12:41;;;;;;;7.55;5.40;;;;;;;0.80;77.59;100375.25;5064998;28;20040;-68
2022/01/23 09:15:13;;;;;;;5.65;4.30;;;;;;;1.68;78.17;100525.88;5065219;28;20048;-68
2022/01/23 09:17:43;;;;;;;7.18;5.18;;;;;;;1.69;77.84;100525.03;5064886;28;20107;-68
2022/01/23 09:20:13;;;;;;;5.43;4.10;;;;;;;1.71;78.18;100523.28;5065762;28;20044;-68
2022/01/23 09:22:43;;;;;;;7.75;5.15;;;;;;;1.76;77.88;100533.72;5064124;28;20212;-67
2022/01/23 09:25:13;;;;;;;8.70;6.07;;;;;;;1.76;78.16;100528.50;5065444;28;20032;-67
2022/01/23 09:27:45;;;;;;;8.13;6.68;;;;;;;1.68;78.24;100523.28;5064834;28;20041;-67
2022/01/23 09:30:19;;;;;;;8.93;6.28;;;;;;;1.72;78.81;100537.22;5065220;28;20052;-68
2022/01/23 09:32:51;;;;;;;8.25;6.60;;;;;;;0.08;78.15;100256.09;5064788;28;20071;-68
2022/01/23 09:35:24;;;;;;;7.90;5.85;;;;;;;1.81;78.13;100540.69;5065046;28;20037;-68
2022/01/23 09:37:57;;;;;;;8.75;6.22;;;;;;;1.83;78.17;100543.31;5065175;28;20041;-68
2022/01/23 09:40:30;;;;;;;6.97;5.22;;;;;;;1.85;78.22;100539.81;5063938;28;20051;-68
2022/01/23 09:43:08;;;;;;;7.13;5.55;;;;;;;1.90;78.39;100540.69;5064090;28;20048;-67
2022/01/23 09:45:40;;;;;;;7.63;5.55;;;;;;;1.58;78.49;100480.56;5065108;28;20048;-68
2022/01/23 09:48:13;;;;;;;7.07;5.40;;;;;;;1.77;78.75;100504.09;5064662;28;20045;-68
2022/01/23 09:50:47;;;;;;;6.47;5.05;;;;;;;2.00;78.77;100549.38;5064755;28;20115;-68
2022/01/23 09:53:23;;;;;;;7.97;6.43;;;;;;;0.90;78.85;100347.44;5064969;28;20040;-68
2022/01/23 09:56:02;;;;;;;7.72;5.68;;;;;;;2.04;78.95;100538.03;5064169;28;20041;-68
2022/01/23 09:58:38;;;;;;;7.88;5.60;;;;;;;2.06;79.14;100538.91;5064818;28;20087;-68
2022/01/23 10:01:11;;;;;;;7.45;5.30;;;;;;;2.11;79.10;100544.13;5064584;28;20334;-68
2022/01/23 10:03:43;;;;;;;6.35;5.35;;;;;;;2.15;78.52;100535.41;5064524;28;20127;-68
2022/01/23 10:06:16;;;;;;;7.97;5.07;;;;;;;2.17;78.82;100539.75;5064243;28;20049;-68
2022/01/23 10:08:48;;;;;;;6.05;4.97;;;;;;;2.01;78.13;100527.59;5064768;28;20045;-68
2022/01/23 10:11:21;;;;;;;6.18;5.13;;;;;;;2.23;78.82;100537.13;5065053;28;20099;-68
2022/01/23 10:13:56;;;;;;;7.03;4.60;;;;;;;2.25;79.75;100537.13;5068455;28;20036;-67
2022/01/23 10:16:31;;;;;;;;;;;;;;;2.23;80.44;100539.75;5068814;28;20063;-67
2022/01/23 10:19:04;;;;;;;9.13;4.93;;;;;;;1.97;79.34;100491.00;5068359;28;20234;-68
2022/01/23 10:21:39;;;;;;;8.93;5.97;;;;;;;2.27;79.64;100537.13;5068091;28;20087;-68
2022/01/23 10:24:12;;;;;;;6.72;4.93;;;;;;;1.75;79.75;100441.38;5068205;28;20041;-67
2022/01/23 10:26:50;;;;;;;7.45;5.30;;;;;;;2.33;79.55;100539.72;5068216;28;20095;-67
2022/01/23 10:29:29;;;;;;;7.90;6.03;;;;;;;2.08;79.20;100486.59;5068286;28;20041;-68
2022/01/23 10:32:10;;;;;;;7.55;6.32;;;;;;;2.37;80.00;100549.31;5067781;28;20045;-68
2022/01/23 10:34:49;;;;;;;8.85;5.38;;;;;;;2.36;80.00;100542.31;5067712;28;20049;-68
2022/01/23 10:37:27;;;;;;;7.40;4.88;;;;;;;2.36;80.02;100540.59;5067604;28;20087;-67
2022/01/23 10:40:05;;;;;;;7.43;5.45;;;;;;;2.37;79.62;100544.06;5067628;28;20045;-68
2022/01/23 10:48:39;;;;;;;6.53;5.10;;;;;;;2.42;79.99;100540.56;5067098;28;20049;-68
2022/01/23 10:51:24;;;;;;;7.90;6.35;;;;;;;2.42;79.72;100516.16;5049933;28;20045;-68
2022/01/23 10:54:13;;;;;;;7.45;5.65;;;;;;;2.47;79.54;100558.88;5067745;28;20048;-68
2022/01/23 10:57:04;;;;;;;7.53;5.68;;;;;;;2.46;79.77;100525.72;5067304;28;20045;-68
2022/01/23 10:59:47;;;;;;;7.65;5.78;;;;;;;2.47;79.34;100517.00;5067634;28;20041;-68
2022/01/23 11:02:24;;;;;;;6.57;5.00;;;;;;;2.49;79.21;100526.59;5066669;28;20095;-68
2022/01/23 11:04:59;;;;;;;7.68;5.50;;;;;;;2.50;79.10;100522.22;5067164;28;20064;-68
2022/01/23 11:07:33;;;;;;;7.97;5.60;;;;;;;2.50;79.53;100523.09;5067068;28;20041;-68
2022/01/23 11:10:08;;;;;;;8.32;6.22;;;;;;;1.37;79.46;100334.31;5066924;28;20064;-68
2022/01/23 11:17:21;;;;;;;7.72;5.80;;;;;;;2.30;79.15;100477.81;5067095;28;20044;-68
2022/01/23 11:18:35;;;;;;;7.72;5.28;;;;;;;2.35;79.23;100481.28;5066949;28;20098;-68
2022/01/23 11:21:20;;;;;;;9.68;6.35;;;;;;;2.62;78.97;100518.69;5066827;28;20048;-68
2022/01/23 11:23:57;;;;;;;9.00;6.28;;;;;;;2.66;78.76;100520.41;5066726;28;20136;-67
2022/01/23 11:26:29;;;;;;;7.82;5.72;;;;;;;2.65;79.17;100510.81;5066832;28;20045;-68
2022/01/23 11:29:10;;;;;;;8.82;6.35;;;;;;;2.63;79.49;100516.06;5067153;28;20045;-67
2022/01/23 11:31:44;;;;;;;11.00;6.70;;;;;;;2.62;79.22;100521.28;5066910;28;20040;-67
2022/01/23 11:34:24;;;;;;;8.93;6.55;;;;;;;2.62;79.49;100519.56;5066678;28;20044;-67
2022/01/23 11:36:57;;;;;;;8.05;6.32;;;;;;;2.65;78.87;100518.66;5065891;28;20306;-67
2022/01/23 11:39:39;;;;;;;11.45;7.22;;;;;;;2.66;78.93;100515.16;5066666;28;20059;-68
2022/01/23 11:51:01;;;;;;;9.07;6.90;;;;;;;1.93;78.40;100385.56;5066593;28;20040;-67
2022/01/23 11:53:51;;;;;;;9.95;7.22;;;;;;;2.73;78.50;100515.13;5066231;28;20228;-68
2022/01/23 11:56:38;;;;;;;11.52;7.63;;;;;;;2.70;79.53;100517.75;5066203;28;20045;-68
2022/01/23 11:59:28;;;;;;;9.32;7.13;;;;;;;2.69;79.45;100521.25;5066273;28;20041;-68
2022/01/23 12:02:33;;;;;;;9.38;6.63;;;;;;;1.66;79.65;100349.94;5066120;28;20041;-70
2022/01/23 12:05:24;;;;;;;46.60;26.35;;;;;;;2.82;78.87;100512.47;5065035;28;20106;-68
2022/01/23 12:08:34;;;;;;;23.50;15.00;;;;;;;2.78;79.38;100505.50;5066064;28;20043;-68
2022/01/23 12:11:38;;;;;;;11.68;8.73;;;;;;;2.84;79.22;100531.66;5065848;28;20041;-68
2022/01/23 12:17:43;;;;;;;10.68;7.85;;;;;;;2.78;79.46;100505.50;5065724;28;20192;-69
2022/01/23 12:20:12;;;;;;;10.77;7.45;;;;;;;2.79;78.94;100503.75;5054580;28;20053;-69
2022/01/23 12:22:54;;;;;;;10.00;7.65;;;;;;;-2.65;78.14;99608.91;5065037;28;20072;-68
2022/01/23 12:25:30;;;;;;;;;;;;;;;2.74;79.94;100505.53;5066086;28;20040;-68
2022/01/23 12:28:25;;;;;;;10.88;7.70;;;;;;;1.84;79.26;100356.84;5065796;28;20107;-68
2022/01/23 12:30:59;;;;;;;11.17;8.47;;;;;;;2.76;79.12;100504.66;5064738;28;20100;-69
2022/01/23 12:33:47;;;;;;;11.95;9.25;;;;;;;2.81;79.45;100499.38;5064473;28;20416;-68
2022/01/23 12:36:27;;;;;;;11.15;6.85;;;;;;;1.98;79.41;100364.63;5065637;28;20052;-68
2022/01/23 12:39:17;;;;;;;11.68;9.02;;;;;;;2.82;79.74;100499.38;5065675;28;20040;-70
2022/01/23 12:42:24;;;;;;;10.30;7.50;;;;;;;2.87;79.65;100497.59;5048667;28;20184;-69
2022/01/23 12:44:57;;;;;;;9.52;7.18;;;;;;;2.87;79.56;100494.13;5064730;28;20045;-67
2022/01/23 12:47:31;;;;;;;37.63;22.00;;;;;;;2.97;78.92;100492.31;5064846;28;20048;-70
2022/01/23 12:50:04;;;;;;;19.15;13.13;;;;;;;3.00;79.15;100485.31;5047865;28;20312;-67
2022/01/23 12:52:50;;;;;;;12.05;8.52;;;;;;;2.99;79.65;100475.72;5065212;28;20091;-67
2022/01/23 12:55:22;;;;;;;9.57;7.88;;;;;;;2.99;79.04;100480.94;5047375;28;20190;-67
2022/01/23 12:57:57;;;;;;;8.60;6.65;;;;;;;2.76;78.64;100433.97;5064850;28;20059;-68
2022/01/23 13:00:30;;;;;;;9.23;6.63;;;;;;;2.46;78.75;100387.03;5064310;28;20051;-68
2022/01/23 13:03:04;;;;;;;8.70;6.70;;;;;;;3.00;78.92;100490.53;5065084;28;20197;-68
2022/01/23 13:05:38;;;;;;;9.73;7.40;;;;;;;2.73;78.96;100438.34;5064987;28;20110;-68
2022/01/23 13:08:22;;;;;;;9.13;7.35;;;;;;;2.99;78.85;100491.41;5065684;28;20045;-69
2022/01/23 13:13:52;;;;;;;10.75;8.90;;;;;;;2.94;79.03;100489.72;5065656;28;20044;-69
2022/01/23 13:16:32;;;;;;;11.88;8.68;;;;;;;2.70;78.74;100449.72;5064526;28;20245;-68
2022/01/23 13:30:24;;;;;;;10.30;7.57;;;;;;;2.65;79.21;100453.22;5064968;28;20052;-68
2022/01/23 13:33:02;;;;;;;11.52;7.93;;;;;;;2.68;79.62;100456.69;5064903;28;20104;-68
2022/01/23 13:35:39;;;;;;;10.90;7.60;;;;;;;2.93;79.49;100490.59;5065203;28;20043;-68
2022/01/23 13:38:19;;;;;;;10.60;8.38;;;;;;;2.93;79.37;100487.97;5065205;28;20041;-69
2022/01/23 13:40:59;;;;;;;10.40;8.52;;;;;;;2.97;78.91;100502.78;5065200;28;20111;-68
2022/01/23 13:52:36;;;;;;;11.55;8.90;;;;;;;3.00;78.77;100497.53;5068545;28;20036;-68
2022/01/23 13:58:33;;;;;;;9.02;6.43;;;;;;;2.97;79.01;100506.28;5051274;28;20300;-68
2022/01/23 14:01:31;;;;;;;10.20;7.10;;;;;;;2.95;79.45;100509.78;5067842;28;20277;-68
2022/01/23 14:04:07;;;;;;;12.60;6.85;;;;;;;2.96;79.05;100520.25;5068264;28;20045;-68
2022/01/23 14:06:39;;;;;;;8.73;6.60;;;;;;;3.00;78.84;100502.78;5068591;28;20087;-68
2022/01/23 14:09:13;;;;;;;7.53;5.85;;;;;;;3.00;78.59;100513.25;5067691;28;20072;-68
2022/01/23 14:11:47;;;;;;;6.93;5.87;;;;;;;2.71;78.83;100454.06;5068467;28;20086;-68
2022/01/23 14:14:27;;;;;;;8.48;6.15;;;;;;;2.75;78.75;100457.53;5050884;28;20212;-68
2022/01/23 14:17:15;;;;;;;8.55;6.30;;;;;;;3.04;78.90;100551.63;5034672;28;20095;-69
2022/01/23 14:20:00;;;;;;;8.07;5.90;;;;;;;3.03;78.91;100511.47;5068115;28;20100;-69
2022/01/23 14:22:34;;;;;;;7.75;6.88;;;;;;;2.63;78.94;100444.53;5068362;28;20083;-69
2022/01/23 14:25:17;;;;;;;7.00;5.55;;;;;;;3.00;78.86;100518.47;5068182;28;20064;-69
2022/01/23 14:28:02;;;;;;;9.38;6.07;;;;;;;3.02;78.97;100525.44;5068211;28;20100;-70
2022/01/23 14:30:42;;;;;;;9.13;6.68;;;;;;;3.04;78.97;100513.22;5068056;28;20079;-69
2022/01/23 14:33:17;;;;;;;8.88;7.13;;;;;;;1.97;78.69;100382.06;5067728;28;20213;-69
2022/01/23 14:35:52;;;;;;;8.50;6.47;;;;;;;3.04;78.77;100513.22;5067118;28;20231;-69
2022/01/23 14:38:27;;;;;;;7.88;6.68;;;;;;;3.02;79.00;100517.59;5050206;28;20090;-67
2022/01/23 14:41:02;;;;;;;8.63;6.75;;;;;;;3.07;78.57;100520.19;5067438;28;20086;-68
2022/01/23 14:43:36;;;;;;;;;;;;;;;2.99;79.73;100516.75;5067932;28;20095;-68
2022/01/23 14:46:10;;;;;;;8.00;5.85;;;;;;;2.99;79.21;100517.63;5067560;28;19917;-68
2022/01/23 14:48:46;;;;;;;8.82;6.68;;;;;;;3.03;79.04;100518.47;5066770;28;20236;-67